Uzice, Serbia
Current Conditions -  °F | °C
As of 9:30 AM on Sunday 26 Oct 2014 (Local Time) from LYUZ Reporting Station
Scattered Clouds Scattered Clouds  
Wind Chill: 32°   Ceiling: Unl
Heat Index: 32°   Visibility: 6mi
Dew Point: 32°   Wind: 3mph
Humidity: 100%   Direction: 30°NNE
Pressure: 30.27"   Gusts: NA
Location:  43.85°N, 19.85°E
Report Text: LYUZ 260730Z 03003KT 330V080 9999 SCT020 00/M00 Q1025
Loading
Personal Weather Stations






























Interactive Weather Map New forecast layout! Learn more

10-Day Weather Forecast

Advertisements
Track Severe Weather on mobile